Trimsaran, United Kingdom
Current Conditions -  °F | °C
As of 4:50 AM on Sunday 21 Dec 2014 (Local Time) from EGOP Reporting Station
Broken Clouds Broken Clouds  
Wind Chill: 40°   Ceiling: 2700
Heat Index: 48°   Visibility: 6mi
Dew Point: 46°   Wind: 25mph
Humidity: 93%   Direction: 250°WSW
Pressure: 30.36"   Gusts: NA
Location:  51.72°N, 4.24°W
Report Text: EGOP 210450Z AUTO 25022KT 9000 // SCT019/// BKN027/// 09/08 Q1028
Loading
Personal Weather Stations






























Interactive Weather Map New forecast layout! Learn more

10-Day Weather Forecast

Advertisements
Track Severe Weather on mobile